createdAt,value
2023-04-27T00:02:39.997Z,8.75
2023-04-27T00:05:43.073Z,8.52
2023-04-27T00:08:45.518Z,8.56
2023-04-27T00:11:48.171Z,8.51
2023-04-27T00:14:50.771Z,8.48
2023-04-27T00:17:53.565Z,8.49
2023-04-27T00:20:55.978Z,8.44
2023-04-27T00:23:58.568Z,8.35
2023-04-27T00:27:01.735Z,8.38
2023-04-27T00:30:05.258Z,8.38
2023-04-27T00:33:08.820Z,8.41
2023-04-27T00:36:11.484Z,8.31
2023-04-27T00:39:14.033Z,8.45
2023-04-27T00:42:19.616Z,8.44
2023-04-27T00:45:22.211Z,8.37
2023-04-27T00:48:25.015Z,8.35
2023-04-27T00:51:30.298Z,8.23
2023-04-27T00:54:33.503Z,8.25
2023-04-27T00:57:35.889Z,8.09
2023-04-27T01:00:40.361Z,8.14
2023-04-27T01:03:42.869Z,8.18
2023-04-27T01:06:45.991Z,8.01
2023-04-27T01:09:48.345Z,7.91
2023-04-27T01:12:51.247Z,7.82
2023-04-27T01:15:53.583Z,7.98
2023-04-27T01:18:56.450Z,7.99
2023-04-27T01:21:59.424Z,7.94
2023-04-27T01:25:02.022Z,7.77
2023-04-27T01:28:06.497Z,7.82
2023-04-27T01:31:11.827Z,7.67
2023-04-27T01:34:14.210Z,7.67
2023-04-27T01:37:16.829Z,7.64
2023-04-27T01:40:19.399Z,7.54
2023-04-27T01:43:22.629Z,7.67
2023-04-27T01:46:25.041Z,7.48
2023-04-27T01:49:27.777Z,7.58
2023-04-27T01:52:31.730Z,7.52
2023-04-27T01:55:34.435Z,7.36
2023-04-27T01:58:37.177Z,7.36
2023-04-27T02:01:39.871Z,7.36
2023-04-27T02:04:43.583Z,7.31
2023-04-27T02:07:46.188Z,7.10
2023-04-27T02:10:48.928Z,7.21
2023-04-27T02:13:52.373Z,7.19
2023-04-27T02:16:55.111Z,7.06
2023-04-27T02:19:58.314Z,7.04
2023-04-27T02:23:02.362Z,7.14
2023-04-27T02:26:05.072Z,7.16
2023-04-27T02:29:07.579Z,7.12
2023-04-27T02:32:11.823Z,7.13
2023-04-27T02:35:14.293Z,7.12
2023-04-27T02:38:17.182Z,7.00
2023-04-27T02:41:19.817Z,7.11
2023-04-27T02:44:22.181Z,7.05
2023-04-27T02:47:26.873Z,6.80
2023-04-27T02:50:29.297Z,6.83
2023-04-27T02:53:31.911Z,6.73
2023-04-27T02:56:34.222Z,6.61
2023-04-27T02:59:36.948Z,6.62
2023-04-27T03:02:39.558Z,6.65
2023-04-27T03:05:42.238Z,6.47
2023-04-27T03:08:44.647Z,6.53
2023-04-27T03:11:47.244Z,6.41
2023-04-27T03:14:49.549Z,6.31
2023-04-27T03:17:53.462Z,6.17
2023-04-27T03:21:12.014Z,6.24
2023-04-27T03:24:14.702Z,6.36
2023-04-27T03:27:18.285Z,6.38
2023-04-27T03:30:20.945Z,6.40
2023-04-27T03:33:23.436Z,6.34
2023-04-27T03:36:27.085Z,6.40
2023-04-27T03:39:29.440Z,6.39
2023-04-27T03:42:32.077Z,6.43
2023-04-27T03:45:34.417Z,6.48
2023-04-27T03:48:37.205Z,6.49
2023-04-27T03:51:42.321Z,6.47
2023-04-27T03:54:45.017Z,6.38
2023-04-27T03:57:47.425Z,6.32
2023-04-27T04:00:50.137Z,6.43
2023-04-27T04:03:52.901Z,6.32
2023-04-27T04:06:55.571Z,6.29
2023-04-27T04:09:58.693Z,6.42
2023-04-27T04:13:01.062Z,6.32
2023-04-27T04:16:05.963Z,6.26
2023-04-27T04:19:08.777Z,6.04
2023-04-27T04:22:12.042Z,6.10
2023-04-27T04:25:14.695Z,6.01
2023-04-27T04:28:17.313Z,5.89
2023-04-27T04:31:21.683Z,6.05
2023-04-27T04:34:24.776Z,5.91
2023-04-27T04:37:27.838Z,5.91
2023-04-27T04:40:30.986Z,5.89
2023-04-27T04:43:33.405Z,5.89
2023-04-27T04:46:37.455Z,6.03
2023-04-27T04:49:39.979Z,5.96
2023-04-27T04:52:43.192Z,6.14
2023-04-27T04:55:45.624Z,6.19
2023-04-27T04:58:49.293Z,6.09
2023-04-27T05:01:55.600Z,6.15
2023-04-27T05:04:58.343Z,6.31
2023-04-27T05:08:00.821Z,6.60
2023-04-27T05:11:03.550Z,6.68
2023-04-27T05:14:05.906Z,6.73
2023-04-27T05:17:08.737Z,6.79
2023-04-27T05:20:11.685Z,6.77
2023-04-27T05:23:14.328Z,6.84
2023-04-27T05:26:18.455Z,6.98
2023-04-27T05:29:22.042Z,6.97
2023-04-27T05:32:24.537Z,7.19
2023-04-27T05:35:27.107Z,7.30
2023-04-27T05:38:29.465Z,7.45
2023-04-27T05:41:32.336Z,7.47
2023-04-27T05:44:34.733Z,7.63
2023-04-27T05:47:37.467Z,7.71
2023-04-27T05:50:40.105Z,7.82
2023-04-27T05:53:42.795Z,7.98
2023-04-27T05:56:45.164Z,8.08
2023-04-27T05:59:47.895Z,8.71
2023-04-27T06:02:50.402Z,9.57
2023-04-27T06:05:58.763Z,10.42
2023-04-27T06:09:02.300Z,10.79
2023-04-27T06:12:06.633Z,10.57
2023-04-27T06:15:09.939Z,10.38
2023-04-27T06:18:13.189Z,10.19
2023-04-27T06:21:15.498Z,10.45
2023-04-27T06:24:18.470Z,10.60
2023-04-27T06:27:20.784Z,10.55
2023-04-27T06:30:26.760Z,10.52
2023-04-27T06:33:29.147Z,10.60
2023-04-27T06:36:31.761Z,10.69
2023-04-27T06:39:34.255Z,10.62
2023-04-27T06:42:37.272Z,11.03
2023-04-27T06:45:40.093Z,11.29
2023-04-27T06:48:42.813Z,10.97
2023-04-27T06:51:46.696Z,11.12
2023-04-27T06:54:49.386Z,11.01
2023-04-27T06:57:51.795Z,11.12
2023-04-27T07:00:54.569Z,11.90
2023-04-27T07:03:57.672Z,12.46
2023-04-27T07:07:00.436Z,12.54
2023-04-27T07:10:02.889Z,12.86
2023-04-27T07:13:08.827Z,13.22
2023-04-27T07:16:11.738Z,13.24
2023-04-27T07:19:14.605Z,13.48
2023-04-27T07:22:18.011Z,13.38
2023-04-27T07:25:21.621Z,13.27
2023-04-27T07:28:23.945Z,12.59
2023-04-27T07:31:26.830Z,12.38
2023-04-27T07:34:35.068Z,12.79
2023-04-27T07:37:45.545Z,13.01
2023-04-27T07:40:47.943Z,13.15
2023-04-27T07:43:51.835Z,13.05
2023-04-27T07:46:54.793Z,13.39
2023-04-27T07:49:57.835Z,13.22
2023-04-27T07:53:00.744Z,13.43
2023-04-27T07:56:06.032Z,13.37
2023-04-27T07:59:08.426Z,13.27
2023-04-27T08:02:19.861Z,13.76
2023-04-27T08:05:23.775Z,13.40
2023-04-27T08:08:26.476Z,13.47
2023-04-27T08:11:29.279Z,13.59
2023-04-27T08:14:34.674Z,13.70
2023-04-27T08:17:40.493Z,14.09
2023-04-27T08:20:42.831Z,13.76
2023-04-27T08:23:45.436Z,14.14
2023-04-27T08:26:48.476Z,13.82
2023-04-27T08:29:51.632Z,13.81
2023-04-27T08:32:55.764Z,13.76
2023-04-27T08:35:58.465Z,13.79
2023-04-27T08:39:00.943Z,13.46
2023-04-27T08:42:13.926Z,13.55
2023-04-27T08:45:16.526Z,13.45
2023-04-27T08:48:20.447Z,13.67
2023-04-27T08:51:24.255Z,13.38
2023-04-27T08:54:27.254Z,13.36
2023-04-27T08:57:29.612Z,12.88
2023-04-27T09:00:42.343Z,13.80
2023-04-27T09:03:46.973Z,13.75
2023-04-27T09:06:49.868Z,14.25
2023-04-27T09:10:03.642Z,14.67
2023-04-27T09:13:06.601Z,14.41
2023-04-27T09:16:09.294Z,14.90
2023-04-27T09:19:12.246Z,15.28
2023-04-27T09:22:15.596Z,14.76
2023-04-27T09:25:28.059Z,15.07
2023-04-27T09:28:32.398Z,14.91
2023-04-27T09:31:36.127Z,15.37
2023-04-27T09:34:40.769Z,15.26
2023-04-27T09:37:43.963Z,15.14
2023-04-27T09:40:47.054Z,15.19
2023-04-27T09:43:50.642Z,15.38
2023-04-27T09:46:53.695Z,15.31
2023-04-27T09:49:59.706Z,14.92
2023-04-27T09:53:02.976Z,14.85
2023-04-27T09:56:28.517Z,14.52
2023-04-27T09:59:40.044Z,14.83
2023-04-27T10:06:32.404Z,14.60
2023-04-27T10:09:46.384Z,14.89
2023-04-27T10:13:01.902Z,14.79
2023-04-27T10:16:17.224Z,15.32
2023-04-27T10:19:21.745Z,15.45
2023-04-27T10:22:25.012Z,15.66
2023-04-27T10:25:41.601Z,16.24
2023-04-27T10:28:45.520Z,15.61
2023-04-27T10:31:48.999Z,15.34
2023-04-27T10:35:02.386Z,15.94
2023-04-27T10:38:10.119Z,15.95
2023-04-27T10:41:15.507Z,15.91
2023-04-27T10:44:20.685Z,15.02
2023-04-27T10:47:24.509Z,15.82
2023-04-27T10:50:28.158Z,15.49
2023-04-27T10:53:36.096Z,15.59
2023-04-27T10:56:38.744Z,15.78
2023-04-27T10:59:52.520Z,15.79
2023-04-27T11:02:57.290Z,15.08
2023-04-27T11:06:02.287Z,14.79
2023-04-27T11:09:06.523Z,14.76
2023-04-27T11:12:12.172Z,14.33
2023-04-27T11:15:15.003Z,14.58
2023-04-27T11:18:19.797Z,14.24
2023-04-27T11:21:23.154Z,14.57
2023-04-27T11:24:25.505Z,14.36
2023-04-27T11:27:40.733Z,14.93
2023-04-27T11:30:43.132Z,15.12
2023-04-27T11:33:49.504Z,15.88
2023-04-27T11:37:17.514Z,16.35
2023-04-27T11:40:22.651Z,16.13
2023-04-27T11:43:27.668Z,16.02
2023-04-27T11:46:30.806Z,16.62
2023-04-27T11:49:33.652Z,16.85
2023-04-27T11:52:38.192Z,16.45
2023-04-27T11:55:41.553Z,16.33
2023-04-27T11:58:46.457Z,15.42
2023-04-27T12:01:49.334Z,15.24
2023-04-27T12:04:52.312Z,15.61
2023-04-27T12:07:54.846Z,16.38
2023-04-27T12:10:57.462Z,16.59
2023-04-27T12:13:59.889Z,16.89
2023-04-27T12:17:03.081Z,16.13
2023-04-27T12:20:06.474Z,15.88
2023-04-27T12:23:09.197Z,16.55
2023-04-27T12:26:14.249Z,15.98
2023-04-27T12:29:18.039Z,16.09
2023-04-27T12:32:20.508Z,15.49
2023-04-27T12:35:23.280Z,15.08
2023-04-27T12:38:25.584Z,14.56
2023-04-27T12:41:28.323Z,15.27
2023-04-27T12:44:30.769Z,16.16
2023-04-27T12:47:50.356Z,16.49
2023-04-27T12:50:57.673Z,16.19
2023-04-27T12:54:02.177Z,15.69
2023-04-27T12:57:06.584Z,15.73
2023-04-27T13:00:13.525Z,15.94
2023-04-27T13:03:16.290Z,16.44
2023-04-27T13:06:22.921Z,16.70
2023-04-27T13:09:25.613Z,16.73
2023-04-27T13:12:28.698Z,16.82
2023-04-27T13:15:31.731Z,17.04
2023-04-27T13:18:35.030Z,16.22
2023-04-27T13:21:38.174Z,16.20
2023-04-27T13:24:42.133Z,16.88
2023-04-27T13:27:44.489Z,16.78
2023-04-27T13:30:48.874Z,16.91
2023-04-27T13:33:51.295Z,17.04
2023-04-27T13:36:54.129Z,17.00
2023-04-27T13:39:56.532Z,16.62
2023-04-27T13:42:59.234Z,17.18
2023-04-27T13:46:02.979Z,16.69
2023-04-27T13:49:06.609Z,17.00
2023-04-27T13:52:09.914Z,17.21
2023-04-27T13:55:12.820Z,16.88
2023-04-27T13:58:15.812Z,16.95
2023-04-27T14:01:18.617Z,17.12
2023-04-27T14:04:21.452Z,17.11
2023-04-27T14:07:23.924Z,17.14
2023-04-27T14:10:26.765Z,16.54
2023-04-27T14:13:29.487Z,16.62
2023-04-27T14:16:32.316Z,16.63
2023-04-27T14:19:34.725Z,17.13
2023-04-27T14:22:37.755Z,16.87
2023-04-27T14:25:40.356Z,17.02
2023-04-27T14:28:43.081Z,16.75
2023-04-27T14:31:46.016Z,16.51
2023-04-27T14:34:49.421Z,16.77
2023-04-27T14:37:52.606Z,16.37
2023-04-27T14:40:56.277Z,16.42
2023-04-27T14:43:59.426Z,16.60
2023-04-27T14:47:02.599Z,16.44
2023-04-27T14:50:06.036Z,16.42
2023-04-27T14:53:09.065Z,16.03
2023-04-27T14:56:12.471Z,16.22
2023-04-27T14:59:15.497Z,16.39
2023-04-27T15:02:18.879Z,16.36
2023-04-27T15:05:21.619Z,16.50
2023-04-27T15:08:24.037Z,15.72
2023-04-27T15:11:26.827Z,15.88
2023-04-27T15:14:29.376Z,16.01
2023-04-27T15:17:32.452Z,15.62
2023-04-27T15:20:35.394Z,16.02
2023-04-27T15:23:38.557Z,16.09
2023-04-27T15:26:42.235Z,15.93
2023-04-27T15:29:45.553Z,15.82
2023-04-27T15:32:48.578Z,15.75
2023-04-27T15:35:51.680Z,15.57
2023-04-27T15:38:54.778Z,15.39
2023-04-27T15:41:59.687Z,15.48
2023-04-27T15:45:02.174Z,15.61
2023-04-27T15:48:05.014Z,15.49
2023-04-27T15:51:10.097Z,15.55
2023-04-27T15:54:14.130Z,15.25
2023-04-27T15:57:18.506Z,15.20
2023-04-27T16:00:22.544Z,15.31
2023-04-27T16:03:25.655Z,15.30
2023-04-27T16:06:33.354Z,15.16
2023-04-27T16:09:36.750Z,15.31
2023-04-27T16:12:39.179Z,15.25
2023-04-27T16:15:41.770Z,15.06
2023-04-27T16:18:44.568Z,15.10
2023-04-27T16:21:47.555Z,14.98
2023-04-27T16:24:50.601Z,15.06
2023-04-27T16:27:53.242Z,15.04
2023-04-27T16:30:56.144Z,14.92
2023-04-27T16:33:58.760Z,14.90
2023-04-27T16:37:01.907Z,14.96
2023-04-27T16:40:07.774Z,14.94
2023-04-27T16:43:10.199Z,14.81
2023-04-27T16:46:14.656Z,14.74
2023-04-27T16:49:17.379Z,14.53
2023-04-27T16:52:21.068Z,14.57
2023-04-27T16:55:23.494Z,14.55
2023-04-27T16:58:26.460Z,14.40
2023-04-27T17:01:30.180Z,14.34
2023-04-27T17:04:35.572Z,14.20
2023-04-27T17:07:38.437Z,14.17
2023-04-27T17:10:42.116Z,14.12
2023-04-27T17:13:44.529Z,14.23
2023-04-27T17:16:47.908Z,14.12
2023-04-27T17:19:50.233Z,14.15
2023-04-27T17:22:52.945Z,14.08
2023-04-27T17:25:56.057Z,14.05
2023-04-27T17:29:01.302Z,13.89
2023-04-27T17:32:04.598Z,13.86
2023-04-27T17:35:07.530Z,13.91
2023-04-27T17:38:11.230Z,13.79
2023-04-27T17:41:13.917Z,13.81
2023-04-27T17:44:16.658Z,13.65
2023-04-27T17:47:20.573Z,13.62
2023-04-27T17:50:24.562Z,13.55
2023-04-27T17:53:27.553Z,13.60
2023-04-27T17:56:29.899Z,13.52
2023-04-27T17:59:33.112Z,13.52
2023-04-27T18:02:35.707Z,13.48
2023-04-27T18:05:38.609Z,13.44
2023-04-27T18:08:41.273Z,13.37
2023-04-27T18:11:44.012Z,13.42
2023-04-27T18:14:46.501Z,13.37
2023-04-27T18:17:49.413Z,13.21
2023-04-27T18:20:52.521Z,13.30
2023-04-27T18:23:56.281Z,13.10
2023-04-27T18:27:00.068Z,13.17
2023-04-27T18:30:03.888Z,13.14
2023-04-27T18:33:06.345Z,13.06
2023-04-27T18:36:09.116Z,12.87
2023-04-27T18:39:11.822Z,12.96
2023-04-27T18:42:14.512Z,12.72
2023-04-27T18:45:17.054Z,12.75
2023-04-27T18:48:20.097Z,12.69
2023-04-27T18:51:26.079Z,12.80
2023-04-27T18:54:29.056Z,12.78
2023-04-27T18:57:31.895Z,12.65
2023-04-27T19:00:35.222Z,12.80
2023-04-27T19:03:37.683Z,12.79
2023-04-27T19:06:40.891Z,12.66
2023-04-27T19:09:43.315Z,12.55
2023-04-27T19:12:46.031Z,12.66
2023-04-27T19:15:48.526Z,12.65
2023-04-27T19:18:51.466Z,12.45
2023-04-27T19:21:54.744Z,12.48
2023-04-27T19:24:57.410Z,12.31
2023-04-27T19:28:00.572Z,12.07
2023-04-27T19:31:03.904Z,11.91
2023-04-27T19:34:06.301Z,11.91
2023-04-27T19:37:08.970Z,11.85
2023-04-27T19:40:12.067Z,11.77
2023-04-27T19:43:14.981Z,11.77
2023-04-27T19:46:17.468Z,11.79
2023-04-27T19:49:20.268Z,11.80
2023-04-27T19:52:23.320Z,11.69
2023-04-27T19:55:26.326Z,11.65
2023-04-27T19:58:29.172Z,11.64
2023-04-27T20:01:32.517Z,11.69
2023-04-27T20:04:35.768Z,11.63
2023-04-27T20:07:38.370Z,11.53
2023-04-27T20:10:42.065Z,11.47
2023-04-27T20:13:44.405Z,11.25
2023-04-27T20:16:47.893Z,11.30
2023-04-27T20:19:50.249Z,11.00
2023-04-27T20:22:52.897Z,10.91
2023-04-27T20:25:55.860Z,10.76
2023-04-27T20:28:59.071Z,10.87
2023-04-27T20:32:02.544Z,10.79
2023-04-27T20:35:10.432Z,10.90
2023-04-27T20:38:13.315Z,10.88
2023-04-27T20:41:16.126Z,10.75
2023-04-27T20:44:20.758Z,10.62
2023-04-27T20:47:23.428Z,10.60
2023-04-27T20:50:26.460Z,10.70
2023-04-27T20:53:29.255Z,10.71
2023-04-27T20:56:32.967Z,10.75
2023-04-27T20:59:35.622Z,10.76
2023-04-27T21:02:38.012Z,10.64
2023-04-27T21:05:41.755Z,10.52
2023-04-27T21:08:44.236Z,10.60
2023-04-27T21:11:46.925Z,10.53
2023-04-27T21:14:49.276Z,10.50
2023-04-27T21:17:52.009Z,10.41
2023-04-27T21:20:54.892Z,10.35
2023-04-27T21:24:07.253Z,10.37
2023-04-27T21:27:11.513Z,10.36
2023-04-27T21:30:15.331Z,10.27
2023-04-27T21:33:18.140Z,10.26
2023-04-27T21:36:21.154Z,10.16
2023-04-27T21:39:23.513Z,10.07
2023-04-27T21:42:26.402Z,10.11
2023-04-27T21:45:28.978Z,10.16
2023-04-27T21:48:31.600Z,10.12
2023-04-27T21:51:34.799Z,10.09
2023-04-27T21:54:37.474Z,10.09
2023-04-27T21:57:40.109Z,10.04
2023-04-27T22:00:42.813Z,9.87
2023-04-27T22:03:45.791Z,9.83
2023-04-27T22:06:48.863Z,10.02
2023-04-27T22:09:51.506Z,9.88
2023-04-27T22:12:53.810Z,9.76
2023-04-27T22:15:56.486Z,10.00
2023-04-27T22:18:59.762Z,9.97
2023-04-27T22:22:02.463Z,9.89
2023-04-27T22:25:05.231Z,9.96
2023-04-27T22:28:07.867Z,9.89
2023-04-27T22:31:10.444Z,9.77
2023-04-27T22:34:13.590Z,9.86
2023-04-27T22:37:16.124Z,9.69
2023-04-27T22:40:18.791Z,9.73
2023-04-27T22:43:21.074Z,9.72
2023-04-27T22:46:23.795Z,9.65
2023-04-27T22:49:26.274Z,9.65
2023-04-27T22:52:33.655Z,9.52
2023-04-27T22:55:36.059Z,9.62
2023-04-27T22:58:38.618Z,9.61
2023-04-27T23:01:40.971Z,9.46
2023-04-27T23:04:43.889Z,9.55
2023-04-27T23:07:46.474Z,9.54
2023-04-27T23:10:49.182Z,9.41
2023-04-27T23:13:51.510Z,9.45
2023-04-27T23:16:56.366Z,9.52
2023-04-27T23:20:00.254Z,9.46
2023-04-27T23:23:02.832Z,9.48
2023-04-27T23:26:15.159Z,9.40
2023-04-27T23:29:17.799Z,9.35
2023-04-27T23:32:20.715Z,9.47
2023-04-27T23:35:23.346Z,9.43
2023-04-27T23:38:25.679Z,9.35
2023-04-27T23:41:28.354Z,9.26
2023-04-27T23:44:30.787Z,9.37
2023-04-27T23:47:33.917Z,9.37
2023-04-27T23:50:36.486Z,9.20
2023-04-27T23:53:39.140Z,9.15
2023-04-27T23:56:41.474Z,9.19
2023-04-27T23:59:44.128Z,9.14
